createdAt,value
2022-11-22T00:02:05.751Z,84.62
2022-11-22T00:06:08.719Z,85.09
2022-11-22T00:10:14.464Z,85.33
2022-11-22T00:14:17.417Z,85.37
2022-11-22T00:18:20.341Z,85.60
2022-11-22T00:22:23.339Z,85.99
2022-11-22T00:26:27.922Z,86.14
2022-11-22T00:30:30.822Z,85.77
2022-11-22T00:34:33.938Z,85.74
2022-11-22T00:38:37.044Z,85.94
2022-11-22T00:42:41.326Z,85.48
2022-11-22T00:46:44.249Z,85.14
2022-11-22T00:50:49.749Z,85.26
2022-11-22T00:54:55.037Z,85.46
2022-11-22T00:58:59.705Z,85.62
2022-11-22T01:03:02.607Z,85.46
2022-11-22T01:07:05.850Z,85.27
2022-11-22T01:11:08.988Z,85.10
2022-11-22T01:15:13.367Z,85.03
2022-11-22T01:19:16.631Z,85.63
2022-11-22T01:23:19.552Z,85.65
2022-11-22T01:27:22.505Z,86.04
2022-11-22T01:31:26.881Z,86.51
2022-11-22T01:35:29.988Z,86.56
2022-11-22T01:39:33.029Z,86.76
2022-11-22T01:43:36.149Z,87.17
2022-11-22T01:47:40.578Z,87.26
2022-11-22T01:51:47.656Z,87.08
2022-11-22T01:55:52.538Z,87.52
2022-11-22T02:00:00.456Z,87.74
2022-11-22T02:04:07.489Z,87.91
2022-11-22T02:08:14.564Z,88.02
2022-11-22T02:12:20.443Z,88.31
2022-11-22T02:16:23.755Z,88.59
2022-11-22T02:20:28.074Z,88.67
2022-11-22T02:24:40.259Z,88.93
2022-11-22T02:28:44.875Z,89.00
2022-11-22T02:32:47.798Z,89.07
2022-11-22T02:36:54.475Z,89.12
2022-11-22T02:40:59.626Z,89.30
2022-11-22T02:45:03.895Z,89.28
2022-11-22T02:49:06.791Z,89.37
2022-11-22T02:53:11.060Z,89.48
2022-11-22T02:57:14.306Z,89.69
2022-11-22T03:01:19.246Z,90.01
2022-11-22T03:05:22.345Z,90.47
2022-11-22T03:09:27.779Z,90.53
2022-11-22T03:13:30.886Z,90.71
2022-11-22T03:17:35.208Z,91.05
2022-11-22T03:21:38.457Z,91.19
2022-11-22T03:25:41.870Z,91.27
2022-11-22T03:29:44.965Z,91.44
2022-11-22T03:33:49.583Z,91.41
2022-11-22T03:37:52.551Z,91.93
2022-11-22T03:41:56.405Z,91.81
2022-11-22T03:45:59.521Z,91.76
2022-11-22T03:50:04.546Z,91.80
2022-11-22T03:54:07.556Z,92.16
2022-11-22T03:58:10.476Z,92.09
2022-11-22T04:02:13.695Z,92.07
2022-11-22T04:06:19.322Z,92.15
2022-11-22T04:10:22.608Z,92.07
2022-11-22T04:14:42.879Z,92.16
2022-11-22T04:18:45.903Z,92.09
2022-11-22T04:22:58.071Z,91.95
2022-11-22T04:27:00.953Z,92.13
2022-11-22T04:31:21.472Z,91.89
2022-11-22T04:35:24.693Z,92.06
2022-11-22T04:39:30.114Z,92.18
2022-11-22T04:43:49.722Z,92.13
2022-11-22T04:48:01.778Z,91.90
2022-11-22T04:52:23.639Z,91.93
2022-11-22T04:56:27.961Z,91.82
2022-11-22T05:00:31.680Z,91.88
2022-11-22T05:04:35.224Z,91.83
2022-11-22T05:08:38.399Z,91.69
2022-11-22T05:12:43.037Z,91.57
2022-11-22T05:16:45.953Z,91.62
2022-11-22T05:20:48.841Z,91.62
2022-11-22T05:24:51.761Z,91.61
2022-11-22T05:28:57.989Z,91.66
2022-11-22T05:33:01.105Z,91.53
2022-11-22T05:37:04.044Z,91.19
2022-11-22T05:41:08.938Z,91.32
2022-11-22T05:45:13.281Z,91.46
2022-11-22T05:49:16.213Z,91.46
2022-11-22T05:53:19.120Z,91.20
2022-11-22T05:57:22.284Z,91.24
2022-11-22T06:01:26.806Z,91.31
2022-11-22T06:05:30.562Z,91.13
2022-11-22T06:09:34.263Z,91.20
2022-11-22T06:13:37.838Z,90.93
2022-11-22T06:17:42.372Z,90.75
2022-11-22T06:21:45.623Z,90.46
2022-11-22T06:25:48.732Z,90.60
2022-11-22T06:29:51.665Z,90.64
2022-11-22T06:33:57.238Z,90.76
2022-11-22T06:38:00.975Z,90.81
2022-11-22T06:42:04.105Z,90.64
2022-11-22T06:46:09.377Z,90.50
2022-11-22T06:50:17.457Z,90.29
2022-11-22T06:54:24.408Z,90.05
2022-11-22T06:58:27.423Z,90.14
2022-11-22T07:02:30.546Z,90.25
2022-11-22T07:06:37.153Z,90.20
2022-11-22T07:10:40.319Z,89.90
2022-11-22T07:14:43.488Z,89.72
2022-11-22T07:18:46.698Z,89.32
2022-11-22T07:22:51.309Z,88.96
2022-11-22T07:26:54.455Z,88.83
2022-11-22T07:31:01.008Z,88.63
2022-11-22T07:35:04.209Z,88.37
2022-11-22T07:39:08.717Z,88.50
2022-11-22T07:43:12.024Z,88.73
2022-11-22T07:47:19.832Z,88.37
2022-11-22T07:51:25.975Z,88.69
2022-11-22T07:55:31.388Z,88.58
2022-11-22T07:59:34.544Z,88.72
2022-11-22T08:03:38.197Z,88.67
2022-11-22T08:07:41.257Z,88.66
2022-11-22T08:11:45.591Z,88.84
2022-11-22T08:15:49.729Z,88.83
2022-11-22T08:19:53.527Z,88.97
2022-11-22T08:23:59.266Z,89.21
2022-11-22T08:28:03.557Z,89.08
2022-11-22T08:32:06.561Z,89.02
2022-11-22T08:36:09.938Z,88.98
2022-11-22T08:40:13.538Z,88.98
2022-11-22T08:44:17.899Z,88.97
2022-11-22T08:48:22.426Z,88.72
2022-11-22T08:52:25.711Z,88.78
2022-11-22T08:56:28.776Z,89.03
2022-11-22T09:00:33.741Z,88.86
2022-11-22T09:04:37.008Z,88.64
2022-11-22T09:08:43.023Z,88.50
2022-11-22T09:12:47.713Z,88.59
2022-11-22T09:16:52.012Z,88.74
2022-11-22T09:20:59.076Z,88.39
2022-11-22T09:25:02.389Z,88.08
2022-11-22T09:29:05.313Z,87.85
2022-11-22T09:33:11.265Z,87.90
2022-11-22T09:37:17.241Z,87.99
2022-11-22T09:41:42.314Z,87.93
2022-11-22T09:46:04.216Z,87.67
2022-11-22T09:50:20.858Z,87.43
2022-11-22T09:54:28.260Z,87.33
2022-11-22T09:58:35.136Z,86.60
2022-11-22T10:02:59.257Z,87.10
2022-11-22T10:07:13.574Z,87.04
2022-11-22T10:11:25.882Z,86.71
2022-11-22T10:15:36.989Z,86.34
2022-11-22T10:19:45.389Z,86.51
2022-11-22T10:23:49.703Z,86.36
2022-11-22T10:28:00.604Z,86.81
2022-11-22T10:32:11.902Z,86.53
2022-11-22T10:36:29.622Z,86.44
2022-11-22T10:40:40.838Z,86.29
2022-11-22T10:44:52.413Z,86.00
2022-11-22T10:49:03.751Z,86.23
2022-11-22T10:53:18.640Z,86.37
2022-11-22T10:57:33.850Z,86.04
2022-11-22T11:01:43.311Z,85.83
2022-11-22T11:06:15.684Z,85.72
2022-11-22T11:10:29.161Z,85.65
2022-11-22T11:14:41.530Z,85.54
2022-11-22T11:18:49.290Z,85.26
2022-11-22T11:23:13.857Z,85.29
2022-11-22T11:27:18.048Z,85.28
2022-11-22T11:31:22.395Z,84.96
2022-11-22T11:35:29.344Z,84.89
2022-11-22T11:39:33.573Z,84.72
2022-11-22T11:43:43.937Z,84.43
2022-11-22T11:47:48.260Z,83.97
2022-11-22T11:51:56.166Z,83.69
2022-11-22T11:56:20.231Z,83.28
2022-11-22T12:00:28.080Z,83.34
2022-11-22T12:04:36.002Z,83.11
2022-11-22T12:08:38.926Z,82.89
2022-11-22T12:12:47.737Z,82.53
2022-11-22T12:16:55.412Z,81.84
2022-11-22T12:21:12.913Z,82.04
2022-11-22T12:25:37.639Z,82.34
2022-11-22T12:29:43.713Z,82.25
2022-11-22T12:33:51.357Z,81.08
2022-11-22T12:37:58.135Z,81.16
2022-11-22T12:42:06.659Z,81.26
2022-11-22T12:46:14.684Z,81.27
2022-11-22T12:50:31.685Z,80.96
2022-11-22T12:54:39.716Z,81.40
2022-11-22T12:58:51.226Z,81.06
2022-11-22T13:03:02.585Z,81.06
2022-11-22T13:07:14.520Z,80.53
2022-11-22T13:11:24.765Z,80.10
2022-11-22T13:15:30.648Z,79.68
2022-11-22T13:19:38.187Z,79.88
2022-11-22T13:23:55.674Z,80.43
2022-11-22T13:28:01.911Z,79.90
2022-11-22T13:32:09.030Z,79.71
2022-11-22T13:36:36.192Z,79.42
2022-11-22T13:40:43.036Z,79.42
2022-11-22T13:45:20.337Z,79.11
2022-11-22T13:49:38.215Z,79.24
2022-11-22T13:53:45.018Z,79.26
2022-11-22T13:57:48.125Z,79.34
2022-11-22T14:02:22.493Z,79.77
2022-11-22T14:06:30.653Z,80.28
2022-11-22T14:10:36.565Z,79.63
2022-11-22T14:14:47.644Z,79.34
2022-11-22T14:19:07.551Z,78.86
2022-11-22T14:23:22.118Z,78.95
2022-11-22T14:27:42.820Z,78.25
2022-11-22T14:32:03.849Z,78.38
2022-11-22T14:36:18.246Z,78.55
2022-11-22T14:40:37.193Z,78.14
2022-11-22T14:44:41.105Z,78.52
2022-11-22T14:48:50.924Z,78.66
2022-11-22T14:52:58.372Z,78.15
2022-11-22T14:57:06.571Z,78.40
2022-11-22T15:01:56.654Z,78.49
2022-11-22T15:09:14.560Z,78.45
2022-11-22T15:11:29.115Z,78.13
2022-11-22T16:00:25.416Z,79.18
2022-11-22T16:04:31.858Z,79.29
2022-11-22T16:08:36.593Z,79.29
2022-11-22T16:12:40.010Z,79.01
2022-11-22T16:16:42.950Z,79.40
2022-11-22T16:21:02.018Z,79.40
2022-11-22T16:25:23.765Z,79.37
2022-11-22T16:29:31.851Z,79.39
2022-11-22T16:33:35.612Z,79.13
2022-11-22T16:37:47.863Z,79.34
2022-11-22T16:41:51.514Z,79.52
2022-11-22T16:45:54.930Z,79.83
2022-11-22T16:49:58.308Z,79.60
2022-11-22T16:54:12.204Z,79.69
2022-11-22T16:58:17.852Z,80.39
2022-11-22T17:02:21.075Z,79.99
2022-11-22T17:06:28.507Z,79.40
2022-11-22T17:10:33.160Z,79.74
2022-11-22T17:14:36.099Z,79.65
2022-11-22T17:18:42.040Z,79.43
2022-11-22T17:22:45.634Z,79.56
2022-11-22T17:26:49.939Z,79.46
2022-11-22T17:30:53.150Z,79.38
2022-11-22T17:34:56.686Z,79.23
2022-11-22T17:39:01.727Z,79.24
2022-11-22T17:43:06.033Z,78.95
2022-11-22T17:47:09.157Z,79.15
2022-11-22T17:51:13.469Z,79.19
2022-11-22T17:55:16.535Z,78.91
2022-11-22T17:59:20.917Z,78.85
2022-11-22T18:03:23.908Z,78.87
2022-11-22T18:07:28.636Z,79.03
2022-11-22T18:11:31.814Z,79.09
2022-11-22T18:15:36.172Z,79.12
2022-11-22T18:19:39.562Z,78.99
2022-11-22T18:23:42.442Z,79.05
2022-11-22T18:27:45.496Z,79.02
2022-11-22T18:31:52.700Z,78.95
2022-11-22T18:36:54.075Z,79.03
2022-11-22T18:40:47.992Z,79.08
2022-11-22T18:44:51.073Z,78.78
2022-11-22T18:48:55.273Z,78.93
2022-11-22T18:52:59.318Z,78.41
2022-11-22T18:57:02.856Z,78.49
2022-11-22T19:01:11.182Z,78.64
2022-11-22T19:05:15.947Z,78.33
2022-11-22T19:09:19.493Z,78.00
2022-11-22T19:13:22.768Z,78.70
2022-11-22T19:17:26.007Z,79.04
2022-11-22T19:21:30.949Z,78.81
2022-11-22T19:25:35.954Z,78.50
2022-11-22T19:29:39.335Z,78.63
2022-11-22T19:33:42.941Z,78.89
2022-11-22T19:37:47.656Z,78.78
2022-11-22T19:41:54.362Z,78.69
2022-11-22T19:46:02.022Z,78.60
2022-11-22T19:50:06.319Z,78.85
2022-11-22T19:54:11.318Z,78.70
2022-11-22T19:58:14.244Z,78.65
2022-11-22T20:02:18.667Z,78.86
2022-11-22T20:06:22.067Z,78.71
2022-11-22T20:10:27.318Z,78.93
2022-11-22T20:14:30.682Z,78.88
2022-11-22T20:18:33.980Z,79.30
2022-11-22T20:22:39.734Z,79.52
2022-11-22T20:26:44.450Z,79.46
2022-11-22T20:30:47.389Z,79.70
2022-11-22T20:34:50.588Z,79.83
2022-11-22T20:38:54.519Z,80.19
2022-11-22T20:42:59.234Z,80.21
2022-11-22T20:47:02.569Z,80.67
2022-11-22T20:51:08.650Z,80.84
2022-11-22T20:55:11.878Z,81.02
2022-11-22T20:59:16.261Z,81.42
2022-11-22T21:03:19.360Z,81.56
2022-11-22T21:07:22.476Z,81.55
2022-11-22T21:11:27.388Z,81.43
2022-11-22T21:15:31.758Z,81.69
2022-11-22T21:19:34.629Z,81.47
2022-11-22T21:23:38.291Z,81.75
2022-11-22T21:27:41.250Z,81.23
2022-11-22T21:31:45.512Z,81.26
2022-11-22T21:35:48.615Z,81.63
2022-11-22T21:39:51.512Z,81.48
2022-11-22T21:43:55.946Z,81.81
2022-11-22T21:48:00.197Z,81.84
2022-11-22T21:52:03.131Z,81.66
2022-11-22T21:56:06.611Z,81.86
2022-11-22T22:00:11.397Z,81.94
2022-11-22T22:04:16.498Z,82.31
2022-11-22T22:08:20.273Z,82.14
2022-11-22T22:12:23.245Z,82.50
2022-11-22T22:16:26.558Z,82.40
2022-11-22T22:20:31.127Z,82.48
2022-11-22T22:24:35.054Z,82.46
2022-11-22T22:28:39.408Z,82.60
2022-11-22T22:32:43.030Z,82.67
2022-11-22T22:36:47.582Z,82.71
2022-11-22T22:40:53.909Z,83.08
2022-11-22T22:44:56.866Z,83.21
2022-11-22T22:49:00.204Z,83.64
2022-11-22T22:53:04.645Z,83.80
2022-11-22T22:57:07.689Z,84.29
2022-11-22T23:01:14.162Z,84.31
2022-11-22T23:05:17.538Z,84.79
2022-11-22T23:09:22.129Z,84.87
2022-11-22T23:13:25.621Z,84.81
2022-11-22T23:17:28.623Z,85.20
2022-11-22T23:21:31.622Z,85.38
2022-11-22T23:25:36.008Z,85.44
2022-11-22T23:29:39.169Z,85.48
2022-11-22T23:33:43.120Z,85.83
2022-11-22T23:37:46.087Z,85.79
2022-11-22T23:41:50.499Z,85.96
2022-11-22T23:45:53.720Z,86.23
2022-11-22T23:49:56.665Z,86.22
2022-11-22T23:54:01.760Z,86.07
2022-11-22T23:58:06.140Z,85.75
